sensor_id;sensor_type;location;lat;lon;timestamp;temperature;humidity
11532;DHT22;5822;51.000;5.874;2023-07-29T00:01:54;20.90;99.90
11532;DHT22;5822;51.000;5.874;2023-07-29T00:04:20;20.90;99.90
11532;DHT22;5822;51.000;5.874;2023-07-29T00:06:45;20.90;99.90
11532;DHT22;5822;51.000;5.874;2023-07-29T00:09:11;20.90;99.90
11532;DHT22;5822;51.000;5.874;2023-07-29T00:11:38;20.90;99.90
11532;DHT22;5822;51.000;5.874;2023-07-29T00:14:03;20.90;99.90
11532;DHT22;5822;51.000;5.874;2023-07-29T00:16:29;20.90;99.90
11532;DHT22;5822;51.000;5.874;2023-07-29T00:18:55;20.90;99.90
11532;DHT22;5822;51.000;5.874;2023-07-29T00:21:20;20.90;99.90
11532;DHT22;5822;51.000;5.874;2023-07-29T00:23:46;20.90;99.90
11532;DHT22;5822;51.000;5.874;2023-07-29T00:26:12;20.90;99.90
11532;DHT22;5822;51.000;5.874;2023-07-29T00:28:37;21.00;99.90
11532;DHT22;5822;51.000;5.874;2023-07-29T00:31:03;21.00;99.90
11532;DHT22;5822;51.000;5.874;2023-07-29T00:33:29;21.00;99.90
11532;DHT22;5822;51.000;5.874;2023-07-29T00:35:54;20.90;99.90
11532;DHT22;5822;51.000;5.874;2023-07-29T00:38:20;21.00;99.90
11532;DHT22;5822;51.000;5.874;2023-07-29T00:40:46;20.90;99.90
11532;DHT22;5822;51.000;5.874;2023-07-29T00:43:11;21.00;99.90
11532;DHT22;5822;51.000;5.874;2023-07-29T00:45:38;21.00;99.90
11532;DHT22;5822;51.000;5.874;2023-07-29T00:48:04;21.00;99.90
11532;DHT22;5822;51.000;5.874;2023-07-29T00:50:31;21.10;99.90
11532;DHT22;5822;51.000;5.874;2023-07-29T00:52:57;21.00;99.90
11532;DHT22;5822;51.000;5.874;2023-07-29T00:55:23;21.10;99.90
11532;DHT22;5822;51.000;5.874;2023-07-29T00:57:50;21.00;99.90
11532;DHT22;5822;51.000;5.874;2023-07-29T01:00:18;21.10;99.90
11532;DHT22;5822;51.000;5.874;2023-07-29T01:02:44;21.10;99.90
11532;DHT22;5822;51.000;5.874;2023-07-29T01:05:12;21.00;99.90
11532;DHT22;5822;51.000;5.874;2023-07-29T01:13:06;21.10;99.90
11532;DHT22;5822;51.000;5.874;2023-07-29T01:15:53;21.00;99.90
11532;DHT22;5822;51.000;5.874;2023-07-29T01:18:26;21.10;99.90
11532;DHT22;5822;51.000;5.874;2023-07-29T01:20:54;21.00;99.90
11532;DHT22;5822;51.000;5.874;2023-07-29T01:23:36;21.10;99.90
11532;DHT22;5822;51.000;5.874;2023-07-29T01:26:03;21.10;99.90
11532;DHT22;5822;51.000;5.874;2023-07-29T01:28:29;21.10;99.90
11532;DHT22;5822;51.000;5.874;2023-07-29T01:34:17;21.10;99.90
11532;DHT22;5822;51.000;5.874;2023-07-29T01:36:46;21.10;99.90
11532;DHT22;5822;51.000;5.874;2023-07-29T01:39:14;21.10;99.90
11532;DHT22;5822;51.000;5.874;2023-07-29T01:41:42;21.10;99.90
11532;DHT22;5822;51.000;5.874;2023-07-29T01:44:09;21.10;99.90
11532;DHT22;5822;51.000;5.874;2023-07-29T01:46:36;21.10;99.90
11532;DHT22;5822;51.000;5.874;2023-07-29T01:49:02;21.10;99.90
11532;DHT22;5822;51.000;5.874;2023-07-29T01:51:28;21.10;99.90
11532;DHT22;5822;51.000;5.874;2023-07-29T01:53:53;21.10;99.90
11532;DHT22;5822;51.000;5.874;2023-07-29T01:56:21;21.10;99.90
11532;DHT22;5822;51.000;5.874;2023-07-29T01:58:46;21.00;99.90
11532;DHT22;5822;51.000;5.874;2023-07-29T02:01:12;21.10;99.90
11532;DHT22;5822;51.000;5.874;2023-07-29T02:03:38;21.00;99.90
11532;DHT22;5822;51.000;5.874;2023-07-29T02:06:03;21.00;99.90
11532;DHT22;5822;51.000;5.874;2023-07-29T02:08:30;21.00;99.90
11532;DHT22;5822;51.000;5.874;2023-07-29T02:10:56;21.00;99.90
11532;DHT22;5822;51.000;5.874;2023-07-29T02:13:21;21.00;99.90
11532;DHT22;5822;51.000;5.874;2023-07-29T02:15:47;21.00;99.90
11532;DHT22;5822;51.000;5.874;2023-07-29T02:18:12;21.00;99.90
11532;DHT22;5822;51.000;5.874;2023-07-29T02:20:38;20.90;99.90
11532;DHT22;5822;51.000;5.874;2023-07-29T02:23:04;20.80;99.90
11532;DHT22;5822;51.000;5.874;2023-07-29T02:25:30;20.90;99.90
11532;DHT22;5822;51.000;5.874;2023-07-29T02:27:55;20.90;99.90
11532;DHT22;5822;51.000;5.874;2023-07-29T02:30:21;20.80;99.90
11532;DHT22;5822;51.000;5.874;2023-07-29T02:32:47;20.80;99.90
11532;DHT22;5822;51.000;5.874;2023-07-29T02:35:12;20.80;99.90
11532;DHT22;5822;51.000;5.874;2023-07-29T02:37:38;20.70;99.90
11532;DHT22;5822;51.000;5.874;2023-07-29T02:40:04;20.70;99.90
11532;DHT22;5822;51.000;5.874;2023-07-29T02:42:31;20.70;99.90
11532;DHT22;5822;51.000;5.874;2023-07-29T02:44:57;20.70;99.90
11532;DHT22;5822;51.000;5.874;2023-07-29T02:47:22;20.70;99.90
11532;DHT22;5822;51.000;5.874;2023-07-29T02:49:48;20.70;99.90
11532;DHT22;5822;51.000;5.874;2023-07-29T02:52:14;20.70;99.90
11532;DHT22;5822;51.000;5.874;2023-07-29T02:54:39;20.70;99.90
11532;DHT22;5822;51.000;5.874;2023-07-29T02:57:05;20.70;99.90
11532;DHT22;5822;51.000;5.874;2023-07-29T02:59:30;20.70;99.90
11532;DHT22;5822;51.000;5.874;2023-07-29T03:01:56;20.70;99.90
11532;DHT22;5822;51.000;5.874;2023-07-29T03:04:22;20.70;99.90
11532;DHT22;5822;51.000;5.874;2023-07-29T03:06:48;20.70;99.90
11532;DHT22;5822;51.000;5.874;2023-07-29T03:09:14;20.60;99.90
11532;DHT22;5822;51.000;5.874;2023-07-29T03:11:40;20.60;99.90
11532;DHT22;5822;51.000;5.874;2023-07-29T03:14:06;20.60;99.90
11532;DHT22;5822;51.000;5.874;2023-07-29T03:16:31;20.60;99.90
11532;DHT22;5822;51.000;5.874;2023-07-29T03:18:57;20.60;99.90
11532;DHT22;5822;51.000;5.874;2023-07-29T03:21:25;20.70;99.90
11532;DHT22;5822;51.000;5.874;2023-07-29T03:23:51;20.60;99.90
11532;DHT22;5822;51.000;5.874;2023-07-29T03:26:17;20.60;99.90
11532;DHT22;5822;51.000;5.874;2023-07-29T03:28:43;20.60;99.90
11532;DHT22;5822;51.000;5.874;2023-07-29T03:31:12;20.60;99.90
11532;DHT22;5822;51.000;5.874;2023-07-29T03:33:38;20.50;99.90
11532;DHT22;5822;51.000;5.874;2023-07-29T03:36:03;20.50;99.90
11532;DHT22;5822;51.000;5.874;2023-07-29T03:38:29;20.50;99.90
11532;DHT22;5822;51.000;5.874;2023-07-29T03:40:55;20.60;99.90
11532;DHT22;5822;51.000;5.874;2023-07-29T03:43:21;20.50;99.90
11532;DHT22;5822;51.000;5.874;2023-07-29T03:45:47;20.50;99.90
11532;DHT22;5822;51.000;5.874;2023-07-29T03:48:12;20.50;99.90
11532;DHT22;5822;51.000;5.874;2023-07-29T03:50:38;20.40;99.90
11532;DHT22;5822;51.000;5.874;2023-07-29T03:53:04;20.40;99.90
11532;DHT22;5822;51.000;5.874;2023-07-29T03:55:30;20.40;99.90
11532;DHT22;5822;51.000;5.874;2023-07-29T03:57:57;20.40;99.90
11532;DHT22;5822;51.000;5.874;2023-07-29T04:00:23;20.40;99.90
11532;DHT22;5822;51.000;5.874;2023-07-29T04:02:52;20.50;99.90
11532;DHT22;5822;51.000;5.874;2023-07-29T04:05:18;20.50;99.90
11532;DHT22;5822;51.000;5.874;2023-07-29T04:07:43;20.40;99.90
11532;DHT22;5822;51.000;5.874;2023-07-29T04:10:09;20.40;99.90
11532;DHT22;5822;51.000;5.874;2023-07-29T04:12:35;20.40;99.90
11532;DHT22;5822;51.000;5.874;2023-07-29T04:15:01;20.40;99.90
11532;DHT22;5822;51.000;5.874;2023-07-29T04:17:27;20.40;99.90
11532;DHT22;5822;51.000;5.874;2023-07-29T04:19:52;20.40;99.90
11532;DHT22;5822;51.000;5.874;2023-07-29T04:22:18;20.40;99.90
11532;DHT22;5822;51.000;5.874;2023-07-29T04:24:43;20.40;99.90
11532;DHT22;5822;51.000;5.874;2023-07-29T04:27:09;20.40;99.90
11532;DHT22;5822;51.000;5.874;2023-07-29T04:29:35;20.40;99.90
11532;DHT22;5822;51.000;5.874;2023-07-29T04:32:02;20.40;99.90
11532;DHT22;5822;51.000;5.874;2023-07-29T04:34:28;20.40;99.90
11532;DHT22;5822;51.000;5.874;2023-07-29T04:36:53;20.40;99.90
11532;DHT22;5822;51.000;5.874;2023-07-29T04:39:19;20.40;99.90
11532;DHT22;5822;51.000;5.874;2023-07-29T04:41:45;20.40;99.90
11532;DHT22;5822;51.000;5.874;2023-07-29T04:44:11;20.40;99.90
11532;DHT22;5822;51.000;5.874;2023-07-29T04:46:36;20.40;99.90
11532;DHT22;5822;51.000;5.874;2023-07-29T04:49:02;20.30;99.90
11532;DHT22;5822;51.000;5.874;2023-07-29T04:51:28;20.30;99.90
11532;DHT22;5822;51.000;5.874;2023-07-29T04:53:54;20.30;99.90
11532;DHT22;5822;51.000;5.874;2023-07-29T04:56:19;20.30;99.90
11532;DHT22;5822;51.000;5.874;2023-07-29T04:58:45;20.30;99.90
11532;DHT22;5822;51.000;5.874;2023-07-29T05:01:11;20.30;99.90
11532;DHT22;5822;51.000;5.874;2023-07-29T05:03:36;20.30;99.90
11532;DHT22;5822;51.000;5.874;2023-07-29T05:06:03;20.30;99.90
11532;DHT22;5822;51.000;5.874;2023-07-29T05:08:29;20.30;99.90
11532;DHT22;5822;51.000;5.874;2023-07-29T05:10:55;20.30;99.90
11532;DHT22;5822;51.000;5.874;2023-07-29T05:13:21;20.20;99.90
11532;DHT22;5822;51.000;5.874;2023-07-29T05:15:48;20.20;99.90
11532;DHT22;5822;51.000;5.874;2023-07-29T05:18:14;20.20;99.90
11532;DHT22;5822;51.000;5.874;2023-07-29T05:20:40;20.10;99.90
11532;DHT22;5822;51.000;5.874;2023-07-29T05:23:06;20.10;99.90
11532;DHT22;5822;51.000;5.874;2023-07-29T05:25:32;20.10;99.90
11532;DHT22;5822;51.000;5.874;2023-07-29T05:28:03;20.20;99.90
11532;DHT22;5822;51.000;5.874;2023-07-29T05:30:30;20.20;99.90
11532;DHT22;5822;51.000;5.874;2023-07-29T05:33:03;20.20;99.90
11532;DHT22;5822;51.000;5.874;2023-07-29T05:35:28;20.10;99.90
11532;DHT22;5822;51.000;5.874;2023-07-29T05:37:54;20.10;99.90
11532;DHT22;5822;51.000;5.874;2023-07-29T05:40:20;20.20;99.90
11532;DHT22;5822;51.000;5.874;2023-07-29T05:42:46;20.10;99.90
11532;DHT22;5822;51.000;5.874;2023-07-29T05:45:12;20.10;99.90
11532;DHT22;5822;51.000;5.874;2023-07-29T05:47:37;20.10;99.90
11532;DHT22;5822;51.000;5.874;2023-07-29T05:50:04;20.10;99.90
11532;DHT22;5822;51.000;5.874;2023-07-29T05:52:33;20.10;99.90
11532;DHT22;5822;51.000;5.874;2023-07-29T05:54:59;20.00;99.90
11532;DHT22;5822;51.000;5.874;2023-07-29T05:57:24;20.00;99.90
11532;DHT22;5822;51.000;5.874;2023-07-29T05:59:50;20.00;99.90
11532;DHT22;5822;51.000;5.874;2023-07-29T06:02:16;20.10;99.90
11532;DHT22;5822;51.000;5.874;2023-07-29T06:04:41;20.10;99.90
11532;DHT22;5822;51.000;5.874;2023-07-29T06:07:07;20.10;99.90
11532;DHT22;5822;51.000;5.874;2023-07-29T06:09:33;20.10;99.90
11532;DHT22;5822;51.000;5.874;2023-07-29T06:11:59;20.10;99.90
11532;DHT22;5822;51.000;5.874;2023-07-29T06:14:24;20.10;99.90
11532;DHT22;5822;51.000;5.874;2023-07-29T06:16:50;20.10;99.90
11532;DHT22;5822;51.000;5.874;2023-07-29T06:19:16;20.10;99.90
11532;DHT22;5822;51.000;5.874;2023-07-29T06:21:42;20.10;99.90
11532;DHT22;5822;51.000;5.874;2023-07-29T06:24:07;20.20;99.90
11532;DHT22;5822;51.000;5.874;2023-07-29T06:26:33;20.10;99.90
11532;DHT22;5822;51.000;5.874;2023-07-29T06:28:58;20.10;99.90
11532;DHT22;5822;51.000;5.874;2023-07-29T06:31:24;20.10;99.90
11532;DHT22;5822;51.000;5.874;2023-07-29T06:33:50;20.10;99.90
11532;DHT22;5822;51.000;5.874;2023-07-29T06:36:15;20.10;99.90
11532;DHT22;5822;51.000;5.874;2023-07-29T06:38:41;20.20;99.90
11532;DHT22;5822;51.000;5.874;2023-07-29T06:41:07;20.10;99.90
11532;DHT22;5822;51.000;5.874;2023-07-29T06:43:33;20.20;99.90
11532;DHT22;5822;51.000;5.874;2023-07-29T06:45:58;20.10;99.90
11532;DHT22;5822;51.000;5.874;2023-07-29T06:48:24;20.00;99.90
11532;DHT22;5822;51.000;5.874;2023-07-29T06:50:50;20.10;99.90
11532;DHT22;5822;51.000;5.874;2023-07-29T06:53:16;20.10;99.90
11532;DHT22;5822;51.000;5.874;2023-07-29T06:55:43;20.10;99.90
11532;DHT22;5822;51.000;5.874;2023-07-29T06:58:09;20.00;99.90
11532;DHT22;5822;51.000;5.874;2023-07-29T07:00:35;20.10;99.90
11532;DHT22;5822;51.000;5.874;2023-07-29T07:03:00;20.10;99.90
11532;DHT22;5822;51.000;5.874;2023-07-29T07:05:26;20.10;99.90
11532;DHT22;5822;51.000;5.874;2023-07-29T07:07:52;20.10;99.90
11532;DHT22;5822;51.000;5.874;2023-07-29T07:10:18;20.10;99.90
11532;DHT22;5822;51.000;5.874;2023-07-29T07:12:44;20.10;99.90
11532;DHT22;5822;51.000;5.874;2023-07-29T07:15:09;20.20;99.90
11532;DHT22;5822;51.000;5.874;2023-07-29T07:17:35;20.20;99.90
11532;DHT22;5822;51.000;5.874;2023-07-29T07:20:01;20.30;99.90
11532;DHT22;5822;51.000;5.874;2023-07-29T07:22:26;20.30;99.90
11532;DHT22;5822;51.000;5.874;2023-07-29T07:24:52;20.40;99.90
11532;DHT22;5822;51.000;5.874;2023-07-29T07:27:18;20.40;99.90
11532;DHT22;5822;51.000;5.874;2023-07-29T07:29:43;20.40;99.90
11532;DHT22;5822;51.000;5.874;2023-07-29T07:32:09;20.40;99.90
11532;DHT22;5822;51.000;5.874;2023-07-29T07:34:34;20.40;99.90
11532;DHT22;5822;51.000;5.874;2023-07-29T07:37:00;20.50;99.90
11532;DHT22;5822;51.000;5.874;2023-07-29T07:39:26;20.50;99.90
11532;DHT22;5822;51.000;5.874;2023-07-29T07:41:52;20.50;99.90
11532;DHT22;5822;51.000;5.874;2023-07-29T07:44:17;20.50;99.90
11532;DHT22;5822;51.000;5.874;2023-07-29T07:46:45;20.60;99.90
11532;DHT22;5822;51.000;5.874;2023-07-29T07:49:11;20.70;99.90
11532;DHT22;5822;51.000;5.874;2023-07-29T07:51:36;20.70;99.90
11532;DHT22;5822;51.000;5.874;2023-07-29T07:54:02;20.80;99.90
11532;DHT22;5822;51.000;5.874;2023-07-29T07:56:27;20.70;99.90
11532;DHT22;5822;51.000;5.874;2023-07-29T07:58:53;20.80;99.90
11532;DHT22;5822;51.000;5.874;2023-07-29T08:01:19;20.80;99.90
11532;DHT22;5822;51.000;5.874;2023-07-29T08:03:45;20.90;99.90
11532;DHT22;5822;51.000;5.874;2023-07-29T08:06:10;20.90;99.90
11532;DHT22;5822;51.000;5.874;2023-07-29T08:08:36;20.90;99.90
11532;DHT22;5822;51.000;5.874;2023-07-29T08:11:01;21.00;99.90
11532;DHT22;5822;51.000;5.874;2023-07-29T08:13:27;21.00;99.90
11532;DHT22;5822;51.000;5.874;2023-07-29T08:15:53;21.00;99.90
11532;DHT22;5822;51.000;5.874;2023-07-29T08:18:19;21.00;99.90
11532;DHT22;5822;51.000;5.874;2023-07-29T08:20:55;21.00;99.90
11532;DHT22;5822;51.000;5.874;2023-07-29T08:23:24;21.00;99.90
11532;DHT22;5822;51.000;5.874;2023-07-29T08:26:01;21.00;99.90
11532;DHT22;5822;51.000;5.874;2023-07-29T08:28:28;21.10;99.90
11532;DHT22;5822;51.000;5.874;2023-07-29T08:30:54;21.10;99.90
11532;DHT22;5822;51.000;5.874;2023-07-29T08:33:20;21.20;99.90
11532;DHT22;5822;51.000;5.874;2023-07-29T08:35:46;21.20;99.90
11532;DHT22;5822;51.000;5.874;2023-07-29T08:38:11;21.30;99.90
11532;DHT22;5822;51.000;5.874;2023-07-29T08:40:41;21.30;99.90
11532;DHT22;5822;51.000;5.874;2023-07-29T08:43:07;21.30;99.90
11532;DHT22;5822;51.000;5.874;2023-07-29T08:45:35;21.30;99.90
11532;DHT22;5822;51.000;5.874;2023-07-29T08:48:03;21.40;99.90
11532;DHT22;5822;51.000;5.874;2023-07-29T08:50:33;21.30;99.90
11532;DHT22;5822;51.000;5.874;2023-07-29T08:53:01;21.40;99.90
11532;DHT22;5822;51.000;5.874;2023-07-29T08:55:29;21.40;99.90
11532;DHT22;5822;51.000;5.874;2023-07-29T08:57:55;21.30;99.90
11532;DHT22;5822;51.000;5.874;2023-07-29T09:00:22;21.40;99.90
11532;DHT22;5822;51.000;5.874;2023-07-29T09:02:48;21.50;99.90
11532;DHT22;5822;51.000;5.874;2023-07-29T09:05:13;21.50;99.90
11532;DHT22;5822;51.000;5.874;2023-07-29T09:07:40;21.50;99.90
11532;DHT22;5822;51.000;5.874;2023-07-29T09:10:09;21.50;99.90
11532;DHT22;5822;51.000;5.874;2023-07-29T09:12:36;21.50;99.90
11532;DHT22;5822;51.000;5.874;2023-07-29T09:15:02;21.50;99.90
11532;DHT22;5822;51.000;5.874;2023-07-29T09:17:34;21.50;99.90
11532;DHT22;5822;51.000;5.874;2023-07-29T09:20:00;21.60;99.90
11532;DHT22;5822;51.000;5.874;2023-07-29T09:22:27;21.60;99.90
11532;DHT22;5822;51.000;5.874;2023-07-29T09:24:53;21.60;99.90
11532;DHT22;5822;51.000;5.874;2023-07-29T09:27:26;21.60;99.90
11532;DHT22;5822;51.000;5.874;2023-07-29T09:29:53;21.60;99.90
11532;DHT22;5822;51.000;5.874;2023-07-29T09:32:20;21.60;99.90
11532;DHT22;5822;51.000;5.874;2023-07-29T09:34:46;21.60;99.90
11532;DHT22;5822;51.000;5.874;2023-07-29T09:37:21;21.50;99.90
11532;DHT22;5822;51.000;5.874;2023-07-29T09:39:47;21.60;99.90
11532;DHT22;5822;51.000;5.874;2023-07-29T09:42:21;21.60;99.90
11532;DHT22;5822;51.000;5.874;2023-07-29T09:44:48;21.70;99.90
11532;DHT22;5822;51.000;5.874;2023-07-29T09:47:24;21.70;99.90
11532;DHT22;5822;51.000;5.874;2023-07-29T09:49:51;21.70;99.90
11532;DHT22;5822;51.000;5.874;2023-07-29T09:52:22;21.80;99.90
11532;DHT22;5822;51.000;5.874;2023-07-29T09:54:48;21.80;99.90
11532;DHT22;5822;51.000;5.874;2023-07-29T09:57:16;21.90;99.90
11532;DHT22;5822;51.000;5.874;2023-07-29T09:59:42;21.90;99.90
11532;DHT22;5822;51.000;5.874;2023-07-29T10:02:13;22.00;99.90
11532;DHT22;5822;51.000;5.874;2023-07-29T10:04:42;22.00;99.90
11532;DHT22;5822;51.000;5.874;2023-07-29T10:07:09;22.10;99.90
11532;DHT22;5822;51.000;5.874;2023-07-29T10:09:36;22.10;99.90
11532;DHT22;5822;51.000;5.874;2023-07-29T10:12:05;22.10;99.90
11532;DHT22;5822;51.000;5.874;2023-07-29T10:14:31;22.10;99.90
11532;DHT22;5822;51.000;5.874;2023-07-29T10:16:57;22.10;99.90
11532;DHT22;5822;51.000;5.874;2023-07-29T10:19:25;22.10;99.90
11532;DHT22;5822;51.000;5.874;2023-07-29T10:21:56;22.10;99.90
11532;DHT22;5822;51.000;5.874;2023-07-29T10:24:25;22.00;99.90
11532;DHT22;5822;51.000;5.874;2023-07-29T10:26:58;22.00;99.90
11532;DHT22;5822;51.000;5.874;2023-07-29T10:29:24;22.10;99.90
11532;DHT22;5822;51.000;5.874;2023-07-29T10:31:53;22.00;99.90
11532;DHT22;5822;51.000;5.874;2023-07-29T10:34:21;22.10;99.90
11532;DHT22;5822;51.000;5.874;2023-07-29T10:36:48;22.10;99.90
11532;DHT22;5822;51.000;5.874;2023-07-29T10:39:14;22.10;99.90
11532;DHT22;5822;51.000;5.874;2023-07-29T10:42:00;22.10;99.90
11532;DHT22;5822;51.000;5.874;2023-07-29T10:47:16;22.30;99.90
11532;DHT22;5822;51.000;5.874;2023-07-29T10:49:42;22.20;99.90
11532;DHT22;5822;51.000;5.874;2023-07-29T10:52:08;22.20;99.90
11532;DHT22;5822;51.000;5.874;2023-07-29T10:54:45;22.20;99.90
11532;DHT22;5822;51.000;5.874;2023-07-29T10:57:31;22.20;99.90
11532;DHT22;5822;51.000;5.874;2023-07-29T10:59:58;22.20;99.90
11532;DHT22;5822;51.000;5.874;2023-07-29T11:02:35;22.20;99.90
11532;DHT22;5822;51.000;5.874;2023-07-29T11:05:15;22.20;99.90
11532;DHT22;5822;51.000;5.874;2023-07-29T11:10:11;22.30;99.90
11532;DHT22;5822;51.000;5.874;2023-07-29T11:12:48;22.40;99.90
11532;DHT22;5822;51.000;5.874;2023-07-29T11:15:26;22.40;99.90
11532;DHT22;5822;51.000;5.874;2023-07-29T11:17:54;22.30;99.90
11532;DHT22;5822;51.000;5.874;2023-07-29T11:20:25;22.30;99.90
11532;DHT22;5822;51.000;5.874;2023-07-29T11:22:52;22.30;99.90
11532;DHT22;5822;51.000;5.874;2023-07-29T11:25:18;22.30;99.90
11532;DHT22;5822;51.000;5.874;2023-07-29T11:27:45;22.40;99.90
11532;DHT22;5822;51.000;5.874;2023-07-29T11:30:13;22.50;99.90
11532;DHT22;5822;51.000;5.874;2023-07-29T11:32:41;22.60;99.90
11532;DHT22;5822;51.000;5.874;2023-07-29T11:35:14;22.60;99.90
11532;DHT22;5822;51.000;5.874;2023-07-29T11:37:41;22.50;99.90
11532;DHT22;5822;51.000;5.874;2023-07-29T11:40:07;22.50;99.90
11532;DHT22;5822;51.000;5.874;2023-07-29T11:42:36;22.50;99.90
11532;DHT22;5822;51.000;5.874;2023-07-29T11:45:03;22.40;99.90
11532;DHT22;5822;51.000;5.874;2023-07-29T11:47:31;22.50;99.90
11532;DHT22;5822;51.000;5.874;2023-07-29T11:50:00;22.50;99.90
11532;DHT22;5822;51.000;5.874;2023-07-29T11:52:27;22.50;99.90
11532;DHT22;5822;51.000;5.874;2023-07-29T11:54:53;22.50;99.90
11532;DHT22;5822;51.000;5.874;2023-07-29T11:57:19;22.40;99.90
11532;DHT22;5822;51.000;5.874;2023-07-29T11:59:46;22.40;99.90
11532;DHT22;5822;51.000;5.874;2023-07-29T12:02:13;22.40;99.90
11532;DHT22;5822;51.000;5.874;2023-07-29T12:04:41;22.30;99.90
11532;DHT22;5822;51.000;5.874;2023-07-29T12:07:07;22.30;99.90
11532;DHT22;5822;51.000;5.874;2023-07-29T12:09:34;22.30;99.90
11532;DHT22;5822;51.000;5.874;2023-07-29T12:12:05;22.30;99.90
11532;DHT22;5822;51.000;5.874;2023-07-29T12:14:32;22.20;99.90
11532;DHT22;5822;51.000;5.874;2023-07-29T12:17:02;22.20;99.90
11532;DHT22;5822;51.000;5.874;2023-07-29T12:19:35;22.20;99.90
11532;DHT22;5822;51.000;5.874;2023-07-29T12:22:03;22.20;99.90
11532;DHT22;5822;51.000;5.874;2023-07-29T12:24:33;22.10;99.90
11532;DHT22;5822;51.000;5.874;2023-07-29T12:26:59;22.10;99.90
11532;DHT22;5822;51.000;5.874;2023-07-29T12:29:26;22.10;99.90
11532;DHT22;5822;51.000;5.874;2023-07-29T12:32:00;22.10;99.90
11532;DHT22;5822;51.000;5.874;2023-07-29T12:34:27;22.10;99.90
11532;DHT22;5822;51.000;5.874;2023-07-29T12:36:57;22.10;99.90
11532;DHT22;5822;51.000;5.874;2023-07-29T12:39:27;22.10;99.90
11532;DHT22;5822;51.000;5.874;2023-07-29T12:41:55;22.10;99.90
11532;DHT22;5822;51.000;5.874;2023-07-29T12:44:22;22.10;99.90
11532;DHT22;5822;51.000;5.874;2023-07-29T12:46:48;22.00;99.90
11532;DHT22;5822;51.000;5.874;2023-07-29T12:49:14;22.00;99.90
11532;DHT22;5822;51.000;5.874;2023-07-29T12:51:40;22.00;99.90
11532;DHT22;5822;51.000;5.874;2023-07-29T12:54:06;22.00;99.90
11532;DHT22;5822;51.000;5.874;2023-07-29T12:56:33;22.00;99.90
11532;DHT22;5822;51.000;5.874;2023-07-29T12:58:59;21.90;99.90
11532;DHT22;5822;51.000;5.874;2023-07-29T13:01:26;21.90;99.90
11532;DHT22;5822;51.000;5.874;2023-07-29T13:03:52;21.90;99.90
11532;DHT22;5822;51.000;5.874;2023-07-29T13:06:17;21.90;99.90
11532;DHT22;5822;51.000;5.874;2023-07-29T13:08:44;21.80;99.90
11532;DHT22;5822;51.000;5.874;2023-07-29T13:11:10;21.80;99.90
11532;DHT22;5822;51.000;5.874;2023-07-29T13:13:36;21.70;99.90
11532;DHT22;5822;51.000;5.874;2023-07-29T13:16:01;21.70;99.90
11532;DHT22;5822;51.000;5.874;2023-07-29T13:18:28;21.70;99.90
11532;DHT22;5822;51.000;5.874;2023-07-29T13:20:54;21.70;99.90
11532;DHT22;5822;51.000;5.874;2023-07-29T13:23:20;21.70;99.90
11532;DHT22;5822;51.000;5.874;2023-07-29T13:25:45;21.90;99.90
11532;DHT22;5822;51.000;5.874;2023-07-29T13:28:11;22.10;99.90
11532;DHT22;5822;51.000;5.874;2023-07-29T13:30:40;22.30;99.90
11532;DHT22;5822;51.000;5.874;2023-07-29T13:33:07;22.40;99.90
11532;DHT22;5822;51.000;5.874;2023-07-29T13:35:32;22.50;99.90
11532;DHT22;5822;51.000;5.874;2023-07-29T13:37:58;22.60;99.90
11532;DHT22;5822;51.000;5.874;2023-07-29T13:40:24;22.70;99.90
11532;DHT22;5822;51.000;5.874;2023-07-29T13:42:50;22.70;99.90
11532;DHT22;5822;51.000;5.874;2023-07-29T13:45:15;22.70;99.90
11532;DHT22;5822;51.000;5.874;2023-07-29T13:47:41;22.70;99.90
11532;DHT22;5822;51.000;5.874;2023-07-29T13:50:07;22.70;99.90
11532;DHT22;5822;51.000;5.874;2023-07-29T13:52:36;22.70;99.90
11532;DHT22;5822;51.000;5.874;2023-07-29T13:55:03;22.70;99.90
11532;DHT22;5822;51.000;5.874;2023-07-29T13:57:29;22.70;99.90
11532;DHT22;5822;51.000;5.874;2023-07-29T13:59:54;22.70;99.90
11532;DHT22;5822;51.000;5.874;2023-07-29T14:02:20;22.70;99.90
11532;DHT22;5822;51.000;5.874;2023-07-29T14:04:46;22.60;99.90
11532;DHT22;5822;51.000;5.874;2023-07-29T14:07:11;22.60;99.90
11532;DHT22;5822;51.000;5.874;2023-07-29T14:09:37;22.60;99.90
11532;DHT22;5822;51.000;5.874;2023-07-29T14:12:04;22.60;99.90
11532;DHT22;5822;51.000;5.874;2023-07-29T14:14:30;22.60;99.90
11532;DHT22;5822;51.000;5.874;2023-07-29T14:16:56;22.60;99.90
11532;DHT22;5822;51.000;5.874;2023-07-29T14:19:22;22.60;99.90
11532;DHT22;5822;51.000;5.874;2023-07-29T14:21:48;22.60;99.90
11532;DHT22;5822;51.000;5.874;2023-07-29T14:24:14;22.60;99.90
11532;DHT22;5822;51.000;5.874;2023-07-29T14:26:41;22.60;99.90
11532;DHT22;5822;51.000;5.874;2023-07-29T14:29:07;22.60;99.90
11532;DHT22;5822;51.000;5.874;2023-07-29T14:31:32;22.60;99.90
11532;DHT22;5822;51.000;5.874;2023-07-29T14:33:58;22.60;99.90
11532;DHT22;5822;51.000;5.874;2023-07-29T14:36:25;22.60;99.90
11532;DHT22;5822;51.000;5.874;2023-07-29T14:38:53;22.50;99.90
11532;DHT22;5822;51.000;5.874;2023-07-29T14:41:18;22.50;99.90
11532;DHT22;5822;51.000;5.874;2023-07-29T14:43:44;22.60;99.90
11532;DHT22;5822;51.000;5.874;2023-07-29T14:46:10;22.70;99.90
11532;DHT22;5822;51.000;5.874;2023-07-29T14:48:35;22.70;99.90
11532;DHT22;5822;51.000;5.874;2023-07-29T14:51:01;22.90;99.90
11532;DHT22;5822;51.000;5.874;2023-07-29T14:53:27;23.00;99.90
11532;DHT22;5822;51.000;5.874;2023-07-29T14:55:52;23.00;99.90
11532;DHT22;5822;51.000;5.874;2023-07-29T14:58:20;23.00;99.90
11532;DHT22;5822;51.000;5.874;2023-07-29T15:00:46;23.10;99.90
11532;DHT22;5822;51.000;5.874;2023-07-29T15:03:12;23.00;99.90
11532;DHT22;5822;51.000;5.874;2023-07-29T15:05:37;23.10;99.90
11532;DHT22;5822;51.000;5.874;2023-07-29T15:08:03;23.10;99.90
11532;DHT22;5822;51.000;5.874;2023-07-29T15:10:29;23.20;99.90
11532;DHT22;5822;51.000;5.874;2023-07-29T15:12:54;23.20;99.90
11532;DHT22;5822;51.000;5.874;2023-07-29T15:15:20;23.40;99.90
11532;DHT22;5822;51.000;5.874;2023-07-29T15:17:45;23.50;99.90
11532;DHT22;5822;51.000;5.874;2023-07-29T15:20:11;23.50;99.90
11532;DHT22;5822;51.000;5.874;2023-07-29T15:22:37;23.50;99.90
11532;DHT22;5822;51.000;5.874;2023-07-29T15:25:03;23.50;99.90
11532;DHT22;5822;51.000;5.874;2023-07-29T15:27:30;23.50;99.90
11532;DHT22;5822;51.000;5.874;2023-07-29T15:29:56;23.50;99.90
11532;DHT22;5822;51.000;5.874;2023-07-29T15:32:22;23.60;99.90
11532;DHT22;5822;51.000;5.874;2023-07-29T15:34:48;23.90;99.90
11532;DHT22;5822;51.000;5.874;2023-07-29T15:37:15;23.90;99.90
11532;DHT22;5822;51.000;5.874;2023-07-29T15:39:40;24.00;99.90
11532;DHT22;5822;51.000;5.874;2023-07-29T15:42:07;23.80;99.90
11532;DHT22;5822;51.000;5.874;2023-07-29T15:44:32;23.80;99.90
11532;DHT22;5822;51.000;5.874;2023-07-29T15:46:58;23.80;99.90
11532;DHT22;5822;51.000;5.874;2023-07-29T15:49:24;23.80;99.90
11532;DHT22;5822;51.000;5.874;2023-07-29T15:51:50;23.70;99.90
11532;DHT22;5822;51.000;5.874;2023-07-29T15:54:16;23.60;99.90
11532;DHT22;5822;51.000;5.874;2023-07-29T15:56:41;23.60;99.90